Chania

Airport
ICAO code: 
LGSA
IATA Code: 
CHQ
Summary
ICAO Region: 
EUR
Territory: 
Location: 
Souda Bay, Crete
Serving: 
Chania
Elevation: 
490 ft
Coordinates: 
Aerial View: 
35° 31' 54.12" N, 24° 8' 58.921" E
Airport WX: 
Low Level Turbulence
Metar
Observation
LGSA 181020Z 36011KT 9999 FEW025 BKN030 15/06 Q1021
Station
Souda Airport
Date/Time
2022-01-18 10:20:00
Wind direction
360°
Wind speed
11 kts
Lowest cloud amount
few clouds
Temperature
15°C
Dew point
6°C
Humidity
54%
QNH
1021 hPa
Weather condition
n/a

Description

Joint civil/military international airport serving the city of Chania on the island of Crete.

Climatology

Mediterranean climate (Köppen climate classification Csa) - Hot, dry summer and a mild wet winter.

Runways

Designator Length Width Surface Rops
11/29 3347 45 ASP Yes/Yes
Airport map: 
Aerial View: 

Accidents and Serious Incidents at or in the vicinity of LGSA

SKYbrary Partners:

Safety knowledge contributed by: